Time;durP1;ratioP1;P1;durP2;ratioP2;P2;SDS_P1;SDS_P2;PMS_P1;PMS_P2;Temp;Humidity;BMP_temperature;BMP_pressure;BME280_temperature;BME280_humidity;BME280_pressure;Samples;Min_cycle;Max_cycle;Signal;HPM_P1;HPM_P2
2023/10/11 00:01:58;;;;;;;420.23;179.63;;;;;;;;;;5027491;28;20206;-51
2023/10/11 00:04:24;;;;;;;405.80;170.63;;;;;;;;;;5028035;28;20176;-51
2023/10/11 00:06:51;;;;;;;417.40;176.77;;;;;;;;;;5027138;28;20294;-52
2023/10/11 00:09:17;;;;;;;411.53;175.00;;;;;;;;;;5027141;28;20563;-51
2023/10/11 00:11:43;;;;;;;429.60;183.30;;;;;;;;;;5027364;28;20310;-51
2023/10/11 00:14:09;;;;;;;405.30;175.87;;;;;;;;;;5027432;28;20184;-51
2023/10/11 00:16:35;;;;;;;399.93;168.27;;;;;;;;;;5027138;28;20856;-51
2023/10/11 00:19:01;;;;;;;404.20;173.63;;;;;;;;;;5027122;28;20196;-51
2023/10/11 00:21:40;;;;;;;426.80;183.00;;;;;;;;;;5027710;28;20173;-52
2023/10/11 00:24:09;;;;;;;408.57;172.23;;;;;;;;;;5027277;28;20168;-52
2023/10/11 00:26:35;;;;;;;410.03;173.83;;;;;;;;;;5026922;28;20239;-51
2023/10/11 00:29:01;;;;;;;417.10;174.07;;;;;;;;;;5026542;28;20678;-51
2023/10/11 00:31:31;;;;;;;412.67;174.13;;;;;;;;;;5026654;28;20235;-51
2023/10/11 00:33:57;;;;;;;423.60;179.37;;;;;;;;;;5026804;28;20385;-49
2023/10/11 00:36:29;;;;;;;416.43;177.80;;;;;;;;;;5026751;28;20264;-49
2023/10/11 00:38:56;;;;;;;404.27;174.63;;;;;;;;;;5027441;28;20693;-49
2023/10/11 00:41:25;;;;;;;424.23;179.80;;;;;;;;;;5026776;28;20259;-48
2023/10/11 00:43:52;;;;;;;416.97;178.50;;;;;;;;;;5026501;28;20183;-49
2023/10/11 00:46:57;;;;;;;401.63;170.33;;;;;;;;;;5026356;28;20630;-49
2023/10/11 00:49:14;;;;;;;427.90;181.70;;;;;;;;;;5026342;28;20211;-49
2023/10/11 00:51:43;;;;;;;414.87;176.13;;;;;;;;;;5025161;28;20226;-49
2023/10/11 00:54:15;;;;;;;411.00;174.83;;;;;;;;;;5025084;28;20191;-49
2023/10/11 00:56:43;;;;;;;411.07;173.70;;;;;;;;;;5025442;28;20592;-49
2023/10/11 00:59:10;;;;;;;421.63;179.67;;;;;;;;;;5024473;28;20235;-48
2023/10/11 01:01:37;;;;;;;407.30;176.33;;;;;;;;;;5026013;28;20188;-48
2023/10/11 01:04:04;;;;;;;416.33;179.47;;;;;;;;;;5029453;28;20632;-49
2023/10/11 01:06:30;;;;;;;412.97;175.00;;;;;;;;;;5028641;28;20215;-48
2023/10/11 01:08:56;;;;;;;417.57;176.13;;;;;;;;;;5028718;28;20203;-49
2023/10/11 01:11:22;;;;;;;414.33;174.07;;;;;;;;;;5028761;28;20176;-48
2023/10/11 01:13:51;;;;;;;396.83;168.40;;;;;;;;;;5030138;28;20234;-49
2023/10/11 01:16:18;;;;;;;415.93;176.67;;;;;;;;;;5030000;28;20588;-49
2023/10/11 01:18:44;;;;;;;417.83;176.90;;;;;;;;;;5030045;28;20662;-49
2023/10/11 01:21:13;;;;;;;418.60;176.00;;;;;;;;;;5030145;28;20235;-48
2023/10/11 01:23:39;;;;;;;415.23;174.33;;;;;;;;;;5030068;28;20674;-49
2023/10/11 01:26:09;;;;;;;421.53;178.13;;;;;;;;;;5029868;28;20207;-49
2023/10/11 01:28:36;;;;;;;392.83;166.93;;;;;;;;;;5029993;28;20374;-49
2023/10/11 01:31:08;;;;;;;421.13;182.73;;;;;;;;;;5029762;28;20259;-49
2023/10/11 01:33:34;;;;;;;418.23;177.67;;;;;;;;;;5029927;28;20630;-49
2023/10/11 01:36:04;;;;;;;408.43;173.53;;;;;;;;;;5030006;28;20267;-48
2023/10/11 01:38:32;;;;;;;403.77;172.27;;;;;;;;;;5029745;28;20210;-49
2023/10/11 01:40:59;;;;;;;413.93;173.17;;;;;;;;;;5029585;28;20259;-49
2023/10/11 01:43:25;;;;;;;417.73;179.83;;;;;;;;;;5029467;28;20198;-51
2023/10/11 01:45:51;;;;;;;407.17;172.07;;;;;;;;;;5029292;28;20176;-51
2023/10/11 01:48:18;;;;;;;417.93;175.57;;;;;;;;;;5029320;28;20179;-52
2023/10/11 01:50:47;;;;;;;400.00;170.07;;;;;;;;;;5029471;28;20257;-51
2023/10/11 01:53:14;;;;;;;393.43;165.63;;;;;;;;;;5029347;28;20176;-52
2023/10/11 01:55:40;;;;;;;412.23;174.53;;;;;;;;;;5029647;28;20195;-51
2023/10/11 01:58:06;;;;;;;424.63;179.07;;;;;;;;;;5029156;28;20258;-51
2023/10/11 02:00:33;;;;;;;413.70;173.03;;;;;;;;;;5028412;28;20200;-51
2023/10/11 02:03:01;;;;;;;413.73;174.83;;;;;;;;;;5029554;28;20299;-51
2023/10/11 02:05:31;;;;;;;421.90;176.23;;;;;;;;;;5029412;28;20619;-51
2023/10/11 02:08:04;;;;;;;410.20;173.03;;;;;;;;;;5029040;28;20196;-51
2023/10/11 02:10:36;;;;;;;406.47;171.73;;;;;;;;;;5029383;28;20737;-52
2023/10/11 02:13:03;;;;;;;423.17;179.67;;;;;;;;;;5029276;28;20215;-51
2023/10/11 02:15:29;;;;;;;414.00;176.43;;;;;;;;;;5029013;28;20241;-51
2023/10/11 02:17:56;;;;;;;411.03;177.83;;;;;;;;;;5029258;28;20188;-51
2023/10/11 02:20:22;;;;;;;409.83;174.00;;;;;;;;;;5029104;28;20537;-51
2023/10/11 02:22:55;;;;;;;420.67;175.10;;;;;;;;;;5029028;28;20199;-52
2023/10/11 02:25:25;;;;;;;412.83;176.00;;;;;;;;;;5029003;28;20188;-51
2023/10/11 02:27:51;;;;;;;428.63;179.50;;;;;;;;;;5028566;28;20281;-52
2023/10/11 02:30:21;;;;;;;411.87;174.97;;;;;;;;;;5029265;28;20551;-52
2023/10/11 02:32:58;;;;;;;414.67;171.50;;;;;;;;;;5028900;28;20248;-51
2023/10/11 02:35:26;;;;;;;409.63;168.97;;;;;;;;;;5028768;28;20603;-51
2023/10/11 02:37:55;;;;;;;405.87;170.73;;;;;;;;;;5028703;28;20234;-51
2023/10/11 02:40:24;;;;;;;411.83;171.57;;;;;;;;;;5028471;28;20214;-51
2023/10/11 02:42:56;;;;;;;412.57;173.10;;;;;;;;;;5028532;28;20181;-51
2023/10/11 02:45:22;;;;;;;419.40;177.53;;;;;;;;;;5028318;28;20164;-51
2023/10/11 02:47:50;;;;;;;413.00;174.10;;;;;;;;;;5028347;28;20200;-51
2023/10/11 02:50:22;;;;;;;427.23;179.07;;;;;;;;;;5028219;28;20260;-52
2023/10/11 02:52:48;;;;;;;401.53;168.57;;;;;;;;;;5028739;28;20683;-51
2023/10/11 02:55:21;;;;;;;417.30;174.03;;;;;;;;;;5028133;28;20187;-52
2023/10/11 02:57:48;;;;;;;429.53;180.57;;;;;;;;;;5027816;28;20164;-51
2023/10/11 03:00:23;;;;;;;412.53;178.37;;;;;;;;;;5027264;28;20262;-52
2023/10/11 03:02:55;;;;;;;425.43;177.53;;;;;;;;;;5028325;28;20179;-51
2023/10/11 03:05:26;;;;;;;405.57;174.17;;;;;;;;;;5028253;28;20176;-51
2023/10/11 03:07:52;;;;;;;404.80;172.97;;;;;;;;;;5028267;28;20200;-51
2023/10/11 03:10:18;;;;;;;407.67;174.00;;;;;;;;;;5028025;28;20739;-52
2023/10/11 03:12:50;;;;;;;418.00;178.40;;;;;;;;;;5027977;28;20654;-51
2023/10/11 03:15:19;;;;;;;421.20;178.87;;;;;;;;;;5027717;28;20180;-51
2023/10/11 03:17:46;;;;;;;417.87;177.60;;;;;;;;;;5027664;28;20281;-51
2023/10/11 03:20:35;;;;;;;413.33;176.97;;;;;;;;;;5027535;28;20203;-51
2023/10/11 03:23:04;;;;;;;423.90;178.30;;;;;;;;;;5028030;28;20259;-51
2023/10/11 03:25:37;;;;;;;416.30;176.33;;;;;;;;;;5027325;28;20173;-51
2023/10/11 03:28:03;;;;;;;407.10;176.40;;;;;;;;;;5027553;28;20284;-52
2023/10/11 03:30:35;;;;;;;413.60;178.97;;;;;;;;;;5027426;28;20223;-51
2023/10/11 03:33:02;;;;;;;418.50;177.07;;;;;;;;;;5027591;28;20272;-51
2023/10/11 03:35:33;;;;;;;421.17;182.70;;;;;;;;;;5027672;28;20275;-51
2023/10/11 03:37:59;;;;;;;419.80;176.87;;;;;;;;;;5027660;28;20531;-51
2023/10/11 03:40:34;;;;;;;418.90;178.60;;;;;;;;;;5027464;28;20207;-51
2023/10/11 03:43:01;;;;;;;413.40;175.33;;;;;;;;;;5027723;28;20168;-51
2023/10/11 03:45:27;;;;;;;419.90;174.40;;;;;;;;;;5027671;28;20184;-52
2023/10/11 03:47:54;;;;;;;408.97;174.93;;;;;;;;;;5027511;28;20208;-51
2023/10/11 03:50:33;;;;;;;440.43;185.47;;;;;;;;;;5027394;28;20658;-51
2023/10/11 03:53:07;;;;;;;417.80;176.87;;;;;;;;;;5027500;28;20153;-51
2023/10/11 03:55:33;;;;;;;413.17;174.90;;;;;;;;;;5027504;28;20225;-51
2023/10/11 03:57:59;;;;;;;417.90;177.50;;;;;;;;;;5027339;28;20251;-51
2023/10/11 04:00:25;;;;;;;422.40;177.80;;;;;;;;;;5025618;28;20227;-51
2023/10/11 04:03:02;;;;;;;412.30;176.57;;;;;;;;;;5027334;28;20180;-51
2023/10/11 04:05:29;;;;;;;410.60;176.43;;;;;;;;;;5027311;28;20246;-51
2023/10/11 04:07:56;;;;;;;415.97;178.83;;;;;;;;;;5027101;28;20246;-51
2023/10/11 04:10:38;;;;;;;414.53;175.73;;;;;;;;;;5027016;28;20200;-51
2023/10/11 04:13:09;;;;;;;421.30;178.67;;;;;;;;;;5027005;28;20276;-51
2023/10/11 04:15:39;;;;;;;543.73;233.07;;;;;;;;;;5035861;23;20183;-70
2023/10/11 04:18:06;;;;;;;450.70;188.40;;;;;;;;;;4977026;28;20189;-70
2023/10/11 04:20:33;;;;;;;433.43;187.17;;;;;;;;;;4979626;28;20201;-70
2023/10/11 04:23:14;;;;;;;492.37;206.97;;;;;;;;;;4979820;28;20240;-71
2023/10/11 04:25:43;;;;;;;440.30;187.90;;;;;;;;;;4976839;28;20178;-70
2023/10/11 04:28:12;;;;;;;500.10;210.70;;;;;;;;;;4979599;28;20725;-70
2023/10/11 04:30:43;;;;;;;469.57;196.43;;;;;;;;;;4975706;28;20634;-72
2023/10/11 04:33:13;;;;;;;492.83;218.83;;;;;;;;;;4976782;28;20185;-73
2023/10/11 04:35:43;;;;;;;472.27;197.83;;;;;;;;;;4974383;28;20236;-72
2023/10/11 04:38:11;;;;;;;459.40;194.00;;;;;;;;;;4977454;28;20197;-72
2023/10/11 04:40:42;;;;;;;446.53;194.27;;;;;;;;;;4982246;28;20216;-73
2023/10/11 04:43:24;;;;;;;475.27;208.70;;;;;;;;;;4980371;28;20195;-73
2023/10/11 04:45:51;;;;;;;487.13;205.27;;;;;;;;;;4982887;28;20189;-72
2023/10/11 04:48:30;;;;;;;467.50;204.17;;;;;;;;;;4979516;28;20209;-72
2023/10/11 04:51:04;;;;;;;497.87;213.67;;;;;;;;;;4981134;28;20271;-72
2023/10/11 04:53:33;;;;;;;455.00;192.63;;;;;;;;;;4979819;28;20196;-72
2023/10/11 04:55:59;;;;;;;495.63;211.47;;;;;;;;;;4984721;28;20223;-71
2023/10/11 04:58:42;;;;;;;453.87;192.10;;;;;;;;;;4981437;28;20529;-71
2023/10/11 05:01:12;;;;;;;459.53;196.80;;;;;;;;;;4981714;28;20181;-73
2023/10/11 05:03:42;;;;;;;430.63;186.43;;;;;;;;;;4982998;28;20311;-71
2023/10/11 05:06:16;;;;;;;524.07;225.17;;;;;;;;;;4980409;28;20296;-71
2023/10/11 05:08:51;;;;;;;505.47;216.70;;;;;;;;;;4981366;28;20213;-71
2023/10/11 05:11:35;;;;;;;494.13;215.53;;;;;;;;;;4983574;28;20188;-71
2023/10/11 05:14:28;;;;;;;475.27;208.97;;;;;;;;;;4982493;28;20213;-71
2023/10/11 05:16:59;;;;;;;452.83;191.07;;;;;;;;;;4983176;28;20363;-72
2023/10/11 05:19:28;;;;;;;470.70;207.87;;;;;;;;;;4983893;28;20205;-72
2023/10/11 05:21:55;;;;;;;461.53;197.00;;;;;;;;;;4982455;28;20181;-71
2023/10/11 05:51:26;;;;;;;517.63;230.07;;;;;;;;;;4991762;28;20674;-72
2023/10/11 05:53:56;;;;;;;457.40;193.83;;;;;;;;;;4985394;28;20216;-72
2023/10/11 05:56:23;;;;;;;491.67;211.53;;;;;;;;;;4989296;28;20216;-71
2023/10/11 05:58:50;;;;;;;465.03;200.17;;;;;;;;;;4990045;28;20185;-72
2023/10/11 06:01:17;;;;;;;505.43;220.30;;;;;;;;;;4976387;28;20195;-71
2023/10/11 06:03:44;;;;;;;499.37;216.73;;;;;;;;;;4978099;28;20207;-72
2023/10/11 06:06:23;;;;;;;509.60;220.70;;;;;;;;;;4978324;28;20631;-69
2023/10/11 06:08:50;;;;;;;505.97;215.80;;;;;;;;;;4979255;28;20227;-71
2023/10/11 06:11:16;;;;;;;476.47;209.10;;;;;;;;;;4980186;28;20181;-70
2023/10/11 06:13:43;;;;;;;494.33;215.87;;;;;;;;;;4985313;28;20192;-70
2023/10/11 06:16:13;;;;;;;408.90;169.57;;;;;;;;;;4991232;28;20247;-70
2023/10/11 06:18:42;;;;;;;538.40;224.43;;;;;;;;;;4996428;28;20198;-63
2023/10/11 06:21:18;;;;;;;492.67;203.23;;;;;;;;;;4992465;28;20177;-63
2023/10/11 06:23:44;;;;;;;511.07;210.83;;;;;;;;;;4982691;28;20223;-65
2023/10/11 06:26:28;;;;;;;499.67;208.70;;;;;;;;;;4988067;28;20240;-64
2023/10/11 06:29:02;;;;;;;544.17;232.27;;;;;;;;;;4976018;28;20205;-64
2023/10/11 06:31:33;;;;;;;503.47;211.10;;;;;;;;;;4979875;28;20177;-64
2023/10/11 06:34:01;;;;;;;511.53;216.53;;;;;;;;;;4977524;28;20200;-65
2023/10/11 06:36:29;;;;;;;542.40;232.03;;;;;;;;;;4970973;28;20221;-65
2023/10/11 06:38:55;;;;;;;506.47;222.17;;;;;;;;;;4974640;28;20304;-64
2023/10/11 06:41:37;;;;;;;478.23;202.37;;;;;;;;;;4983647;28;20218;-67
2023/10/11 06:44:04;;;;;;;497.50;215.30;;;;;;;;;;4978727;28;20268;-67
2023/10/11 06:46:30;;;;;;;486.40;203.33;;;;;;;;;;4982606;28;20252;-67
2023/10/11 06:48:58;;;;;;;495.93;206.67;;;;;;;;;;4986141;28;20259;-67
2023/10/11 06:51:24;;;;;;;491.63;208.90;;;;;;;;;;4997586;28;20663;-67
2023/10/11 06:53:50;;;;;;;486.27;219.20;;;;;;;;;;4988007;28;20213;-67
2023/10/11 06:56:16;;;;;;;490.50;215.67;;;;;;;;;;4977766;28;20828;-66
2023/10/11 06:58:44;;;;;;;498.87;218.63;;;;;;;;;;4980919;28;20279;-66
2023/10/11 07:01:13;;;;;;;468.03;202.33;;;;;;;;;;4976321;28;20203;-67
2023/10/11 07:03:39;;;;;;;494.00;213.03;;;;;;;;;;4978447;28;20277;-67
2023/10/11 07:06:12;;;;;;;532.70;241.27;;;;;;;;;;4976866;28;20666;-67
2023/10/11 07:08:53;;;;;;;522.27;226.33;;;;;;;;;;4977460;28;20182;-67
2023/10/11 07:11:41;;;;;;;459.57;194.57;;;;;;;;;;4983280;28;20181;-67
2023/10/11 07:14:14;;;;;;;479.67;209.23;;;;;;;;;;4981261;28;20815;-67
2023/10/11 07:16:42;;;;;;;490.43;209.30;;;;;;;;;;4979207;28;20280;-67
2023/10/11 07:19:09;;;;;;;546.30;243.40;;;;;;;;;;4979722;28;20231;-66
2023/10/11 07:24:32;;;;;;;519.53;234.93;;;;;;;;;;4979824;28;20198;-66
2023/10/11 07:26:59;;;;;;;476.03;207.17;;;;;;;;;;4982859;28;20299;-67
2023/10/11 07:29:26;;;;;;;482.17;211.37;;;;;;;;;;4982517;28;20203;-67
2023/10/11 07:31:53;;;;;;;500.07;223.67;;;;;;;;;;4978249;28;20216;-67
2023/10/11 07:34:20;;;;;;;509.17;224.90;;;;;;;;;;4974377;28;21169;-67
2023/10/11 07:36:50;;;;;;;473.70;213.57;;;;;;;;;;4974337;28;20285;-66
2023/10/11 07:39:20;;;;;;;509.27;231.67;;;;;;;;;;4980403;28;20220;-66
2023/10/11 07:41:51;;;;;;;502.87;220.37;;;;;;;;;;4989998;28;20671;-66
2023/10/11 07:44:27;;;;;;;462.33;207.30;;;;;;;;;;4984897;28;20308;-67
2023/10/11 07:46:55;;;;;;;541.83;251.33;;;;;;;;;;4969824;28;20224;-67
2023/10/11 07:49:24;;;;;;;471.07;209.93;;;;;;;;;;4977713;28;20329;-67
2023/10/11 07:51:58;;;;;;;498.73;222.20;;;;;;;;;;4979760;28;20182;-67
2023/10/11 07:54:25;;;;;;;507.60;229.20;;;;;;;;;;4975939;28;20206;-67
2023/10/11 07:56:55;;;;;;;539.47;248.10;;;;;;;;;;4977148;28;20554;-68
2023/10/11 07:59:26;;;;;;;487.73;212.40;;;;;;;;;;4980017;28;20201;-66
2023/10/11 08:01:54;;;;;;;533.07;239.27;;;;;;;;;;4976936;28;20608;-66
2023/10/11 08:04:22;;;;;;;464.63;208.17;;;;;;;;;;4976060;28;20199;-66
2023/10/11 08:06:59;;;;;;;519.93;234.90;;;;;;;;;;4975151;28;20291;-66
2023/10/11 08:09:25;;;;;;;471.63;206.87;;;;;;;;;;4973546;28;20587;-67
2023/10/11 08:11:57;;;;;;;470.90;211.40;;;;;;;;;;4980870;28;20192;-66
2023/10/11 08:14:28;;;;;;;466.27;204.37;;;;;;;;;;4981826;28;20395;-65
2023/10/11 08:16:56;;;;;;;555.00;262.43;;;;;;;;;;4973626;28;20209;-66
2023/10/11 08:19:22;;;;;;;509.67;228.87;;;;;;;;;;4979454;28;20509;-67
2023/10/11 08:22:09;;;;;;;483.77;214.53;;;;;;;;;;4979039;28;20185;-67
2023/10/11 08:24:46;;;;;;;503.53;227.07;;;;;;;;;;4976724;28;20186;-66
2023/10/11 08:27:12;;;;;;;503.13;235.87;;;;;;;;;;4977605;28;21897;-67
2023/10/11 08:29:42;;;;;;;551.27;250.80;;;;;;;;;;4977021;28;20206;-67
2023/10/11 08:32:12;;;;;;;539.73;244.87;;;;;;;;;;4978275;28;20518;-67
2023/10/11 08:34:38;;;;;;;544.03;252.40;;;;;;;;;;4976417;28;20608;-66
2023/10/11 08:37:07;;;;;;;507.97;227.93;;;;;;;;;;4978609;28;20192;-66
2023/10/11 08:39:41;;;;;;;515.70;239.43;;;;;;;;;;4975064;28;20704;-67
2023/10/11 08:42:11;;;;;;;504.03;237.73;;;;;;;;;;4977102;28;20209;-66
2023/10/11 08:44:39;;;;;;;515.20;242.00;;;;;;;;;;4971757;28;20266;-67
2023/10/11 08:47:05;;;;;;;532.93;247.13;;;;;;;;;;4977118;28;20215;-66
2023/10/11 08:49:35;;;;;;;523.50;244.23;;;;;;;;;;4979214;28;20237;-67
2023/10/11 08:52:01;;;;;;;462.50;211.50;;;;;;;;;;4982074;28;20244;-66
2023/10/11 08:54:28;;;;;;;483.23;220.23;;;;;;;;;;4976809;28;20185;-67
2023/10/11 08:56:54;;;;;;;526.47;248.67;;;;;;;;;;4979547;28;20261;-67
2023/10/11 08:59:30;;;;;;;513.63;238.57;;;;;;;;;;4979405;28;20209;-67
2023/10/11 09:01:59;;;;;;;516.63;243.13;;;;;;;;;;4973021;28;20283;-66
2023/10/11 09:04:28;;;;;;;517.70;241.43;;;;;;;;;;4975892;28;20691;-67
2023/10/11 09:06:57;;;;;;;544.10;264.80;;;;;;;;;;4974887;28;20308;-67
2023/10/11 09:09:35;;;;;;;511.47;249.53;;;;;;;;;;4977016;28;20208;-67
2023/10/11 09:12:20;;;;;;;500.00;238.63;;;;;;;;;;4979982;28;20285;-68
2023/10/11 09:14:58;;;;;;;554.07;269.60;;;;;;;;;;4970007;28;20320;-67
2023/10/11 09:17:25;;;;;;;534.10;259.60;;;;;;;;;;4971813;28;20742;-68
2023/10/11 09:19:53;;;;;;;526.47;256.60;;;;;;;;;;4976214;28;20204;-68
2023/10/11 09:22:19;;;;;;;505.67;242.23;;;;;;;;;;4979252;28;20186;-68
2023/10/11 09:24:45;;;;;;;519.63;245.40;;;;;;;;;;4977304;28;20224;-68
2023/10/11 09:29:50;;;;;;;542.10;256.50;;;;;;;;;;4978307;28;20210;-68
2023/10/11 09:32:27;;;;;;;515.00;244.43;;;;;;;;;;4977640;28;20263;-69
2023/10/11 09:34:54;;;;;;;513.67;241.57;;;;;;;;;;4984460;28;20619;-69
2023/10/11 09:37:20;;;;;;;476.90;223.07;;;;;;;;;;4980220;28;20186;-71
2023/10/11 09:39:46;;;;;;;565.80;271.90;;;;;;;;;;4978542;28;20213;-69
2023/10/11 09:42:14;;;;;;;479.23;233.10;;;;;;;;;;4978772;28;20182;-68
2023/10/11 09:44:43;;;;;;;563.97;274.07;;;;;;;;;;4974122;28;20694;-67
2023/10/11 09:47:16;;;;;;;541.07;265.63;;;;;;;;;;4967124;28;20217;-70
2023/10/11 09:49:42;;;;;;;537.43;255.37;;;;;;;;;;4975826;28;20224;-69
2023/10/11 09:52:11;;;;;;;512.80;248.13;;;;;;;;;;4972254;28;21794;-70
2023/10/11 09:54:39;;;;;;;514.40;249.60;;;;;;;;;;4972937;28;20666;-70
2023/10/11 09:57:20;;;;;;;543.27;273.60;;;;;;;;;;4974371;28;20185;-69
2023/10/11 09:59:50;;;;;;;520.03;260.33;;;;;;;;;;4976258;28;20588;-68
2023/10/11 10:02:16;;;;;;;468.27;229.70;;;;;;;;;;4972183;28;20708;-70
2023/10/11 10:04:51;;;;;;;561.00;277.80;;;;;;;;;;4970526;28;20186;-69
2023/10/11 10:07:32;;;;;;;507.00;258.07;;;;;;;;;;4978582;28;20623;-65
2023/10/11 10:10:01;;;;;;;516.83;260.60;;;;;;;;;;4974923;28;20699;-64
2023/10/11 10:12:32;;;;;;;529.37;294.30;;;;;;;;;;4977014;28;20185;-64
2023/10/11 10:15:02;;;;;;;525.30;272.63;;;;;;;;;;4975392;28;20185;-69
2023/10/11 10:17:28;;;;;;;483.47;255.17;;;;;;;;;;4974876;28;20284;-70
2023/10/11 10:20:00;;;;;;;493.43;252.43;;;;;;;;;;4977504;28;20284;-70
2023/10/11 10:22:31;;;;;;;500.50;256.53;;;;;;;;;;4976588;28;20214;-70
2023/10/11 10:25:18;;;;;;;516.77;266.43;;;;;;;;;;4976812;28;20249;-69
2023/10/11 10:27:47;;;;;;;506.43;260.40;;;;;;;;;;4971004;28;20343;-70
2023/10/11 10:30:21;;;;;;;538.00;286.97;;;;;;;;;;4961862;28;20220;-70
2023/10/11 10:33:06;;;;;;;570.17;290.83;;;;;;;;;;4968927;28;20204;-70
2023/10/11 10:35:36;;;;;;;504.00;255.17;;;;;;;;;;4969702;28;20193;-70
2023/10/11 10:38:05;;;;;;;527.27;261.83;;;;;;;;;;4970962;28;20221;-69
2023/10/11 10:40:31;;;;;;;527.47;266.73;;;;;;;;;;4971064;28;20225;-70
2023/10/11 10:43:14;;;;;;;521.50;270.40;;;;;;;;;;4968243;28;20187;-68
2023/10/11 10:45:40;;;;;;;551.93;282.10;;;;;;;;;;4967258;28;20280;-69
2023/10/11 10:48:16;;;;;;;492.77;256.17;;;;;;;;;;4971153;28;20217;-68
2023/10/11 10:50:48;;;;;;;526.80;275.60;;;;;;;;;;4969764;28;20579;-68
2023/10/11 10:53:15;;;;;;;528.13;273.03;;;;;;;;;;4976521;28;20172;-68
2023/10/11 10:55:42;;;;;;;504.00;258.03;;;;;;;;;;4979905;28;20190;-68
2023/10/11 10:58:09;;;;;;;503.90;267.83;;;;;;;;;;4982089;28;20192;-69
2023/10/11 11:00:40;;;;;;;518.63;275.63;;;;;;;;;;4982258;28;20228;-69
2023/10/11 11:03:24;;;;;;;506.57;277.13;;;;;;;;;;4979793;28;20182;-68
2023/10/11 11:05:57;;;;;;;522.47;278.17;;;;;;;;;;4977324;28;20335;-69
2023/10/11 11:08:31;;;;;;;499.97;261.60;;;;;;;;;;4981887;28;20298;-69
2023/10/11 11:11:00;;;;;;;491.83;263.63;;;;;;;;;;4978812;28;20313;-69
2023/10/11 11:13:29;;;;;;;509.83;273.57;;;;;;;;;;4982908;28;20182;-69
2023/10/11 11:15:55;;;;;;;508.07;260.87;;;;;;;;;;4976924;28;20255;-69
2023/10/11 11:18:34;;;;;;;513.57;275.70;;;;;;;;;;4981672;28;20610;-69
2023/10/11 11:21:21;;;;;;;503.73;265.40;;;;;;;;;;4984756;28;20218;-69
2023/10/11 11:23:51;;;;;;;498.23;263.67;;;;;;;;;;4982396;28;20211;-69
2023/10/11 11:26:18;;;;;;;509.63;267.33;;;;;;;;;;4989790;28;20233;-69
2023/10/11 11:28:44;;;;;;;515.97;271.63;;;;;;;;;;4983110;28;20182;-69
2023/10/11 11:31:13;;;;;;;495.30;265.60;;;;;;;;;;4986594;28;20182;-69
2023/10/11 11:34:05;;;;;;;512.80;267.13;;;;;;;;;;4976444;28;20192;-68
2023/10/11 11:36:31;;;;;;;520.73;282.53;;;;;;;;;;4987225;28;20642;-69
2023/10/11 11:42:07;;;;;;;490.47;269.03;;;;;;;;;;4960776;28;20847;-69
2023/10/11 11:44:33;;;;;;;477.30;259.77;;;;;;;;;;4977957;28;20555;-69
2023/10/11 11:47:06;;;;;;;521.87;281.23;;;;;;;;;;4972272;28;20267;-69
2023/10/11 11:49:35;;;;;;;487.87;272.13;;;;;;;;;;4976910;28;21172;-69
2023/10/11 11:52:01;;;;;;;572.40;319.00;;;;;;;;;;4975725;28;20868;-70
2023/10/11 11:54:28;;;;;;;498.53;276.63;;;;;;;;;;4988213;28;20198;-71
2023/10/11 11:56:54;;;;;;;559.43;308.77;;;;;;;;;;4978079;28;20316;-69
2023/10/11 11:59:21;;;;;;;508.80;286.63;;;;;;;;;;4980139;28;20201;-69
2023/10/11 12:01:52;;;;;;;570.20;322.97;;;;;;;;;;4977219;28;20288;-69
2023/10/11 12:04:29;;;;;;;512.50;278.20;;;;;;;;;;4977407;28;20214;-69
2023/10/11 12:06:59;;;;;;;536.30;298.27;;;;;;;;;;4976295;28;20216;-69
2023/10/11 12:09:31;;;;;;;498.30;269.90;;;;;;;;;;4980109;28;20216;-70
2023/10/11 12:12:02;;;;;;;517.60;285.17;;;;;;;;;;4983583;28;20312;-70
2023/10/11 12:14:28;;;;;;;495.10;270.87;;;;;;;;;;4984985;28;20197;-69
2023/10/11 12:16:55;;;;;;;538.23;297.20;;;;;;;;;;4975073;28;20197;-70
2023/10/11 12:19:22;;;;;;;504.93;275.30;;;;;;;;;;4979159;28;20220;-70
2023/10/11 12:21:48;;;;;;;520.97;290.83;;;;;;;;;;4979961;28;20181;-70
2023/10/11 12:24:14;;;;;;;551.97;312.83;;;;;;;;;;4983191;28;20282;-70
2023/10/11 12:26:43;;;;;;;540.33;305.80;;;;;;;;;;4983919;28;20231;-70
2023/10/11 12:29:10;;;;;;;540.57;306.03;;;;;;;;;;4978805;28;20220;-70
2023/10/11 12:31:38;;;;;;;494.60;289.63;;;;;;;;;;4977360;28;20938;-71
2023/10/11 12:34:04;;;;;;;548.53;318.57;;;;;;;;;;4977453;28;20185;-70
2023/10/11 12:36:30;;;;;;;491.97;289.27;;;;;;;;;;4977343;28;20574;-71
2023/10/11 12:38:57;;;;;;;514.27;304.57;;;;;;;;;;4984351;28;20280;-70
2023/10/11 12:41:23;;;;;;;502.87;293.40;;;;;;;;;;4980343;28;20777;-70
2023/10/11 12:43:49;;;;;;;504.57;294.20;;;;;;;;;;4985251;28;20189;-71
2023/10/11 12:46:16;;;;;;;529.80;314.63;;;;;;;;;;4981359;28;20213;-70
2023/10/11 12:48:42;;;;;;;570.10;334.27;;;;;;;;;;4980854;28;20892;-70
2023/10/11 12:51:08;;;;;;;509.93;299.27;;;;;;;;;;4984570;28;20173;-70
2023/10/11 12:53:35;;;;;;;479.83;287.97;;;;;;;;;;4982442;28;20181;-70
2023/10/11 12:56:02;;;;;;;567.50;333.23;;;;;;;;;;4984678;28;20189;-70
2023/10/11 12:58:38;;;;;;;525.33;309.17;;;;;;;;;;4985335;28;20249;-70
2023/10/11 13:01:50;;;;;;;498.77;297.13;;;;;;;;;;4980641;28;20220;-70
2023/10/11 13:04:05;;;;;;;521.07;307.70;;;;;;;;;;4977234;28;20211;-70
2023/10/11 13:06:32;;;;;;;513.33;307.90;;;;;;;;;;4982167;28;20206;-70
2023/10/11 13:08:59;;;;;;;548.53;330.40;;;;;;;;;;4983657;28;20293;-70
2023/10/11 13:11:25;;;;;;;499.57;305.33;;;;;;;;;;4976287;28;20185;-70
2023/10/11 13:13:51;;;;;;;560.07;336.20;;;;;;;;;;4972271;28;20185;-70
2023/10/11 13:16:26;;;;;;;514.40;314.77;;;;;;;;;;4995633;28;20194;-69
2023/10/11 13:18:52;;;;;;;549.30;331.37;;;;;;;;;;4980016;28;20271;-71
2023/10/11 13:21:25;;;;;;;470.00;292.53;;;;;;;;;;4981845;28;20177;-71
2023/10/11 13:23:51;;;;;;;559.23;341.63;;;;;;;;;;4978054;28;20684;-71
2023/10/11 13:26:18;;;;;;;520.03;316.37;;;;;;;;;;4981141;28;20200;-72
2023/10/11 13:28:48;;;;;;;497.33;312.87;;;;;;;;;;4984827;28;20177;-70
2023/10/11 13:31:17;;;;;;;553.23;333.13;;;;;;;;;;4989405;28;20181;-71
2023/10/11 13:33:43;;;;;;;537.73;331.30;;;;;;;;;;4983923;28;20610;-69
2023/10/11 13:36:12;;;;;;;542.70;333.80;;;;;;;;;;4976971;28;20264;-71
2023/10/11 13:38:41;;;;;;;535.57;333.10;;;;;;;;;;4981174;28;20266;-70
2023/10/11 13:41:12;;;;;;;532.90;329.17;;;;;;;;;;4985217;28;20186;-70
2023/10/11 13:43:38;;;;;;;579.83;349.27;;;;;;;;;;4980943;28;20230;-71
2023/10/11 13:46:06;;;;;;;533.53;320.87;;;;;;;;;;4980338;28;20229;-71
2023/10/11 13:48:43;;;;;;;504.23;301.53;;;;;;;;;;4980518;28;20740;-70
2023/10/11 13:51:16;;;;;;;551.00;330.53;;;;;;;;;;4981434;28;20243;-71
2023/10/11 13:53:42;;;;;;;526.97;319.03;;;;;;;;;;4984168;28;20212;-70
2023/10/11 13:56:21;;;;;;;537.57;331.60;;;;;;;;;;4975629;28;20327;-71
2023/10/11 13:58:51;;;;;;;539.00;335.07;;;;;;;;;;4980892;28;20181;-70
2023/10/11 14:03:54;;;;;;;550.13;336.20;;;;;;;;;;4978183;28;20201;-70
2023/10/11 14:06:21;;;;;;;507.90;328.13;;;;;;;;;;4974946;28;20213;-71
2023/10/11 14:08:48;;;;;;;554.97;364.80;;;;;;;;;;4977552;28;20181;-71
2023/10/11 14:11:14;;;;;;;555.63;356.40;;;;;;;;;;4979079;28;20185;-71
2023/10/11 14:13:48;;;;;;;536.87;345.03;;;;;;;;;;4975569;28;20290;-72
2023/10/11 14:16:14;;;;;;;497.77;344.07;;;;;;;;;;4978745;28;20201;-71
2023/10/11 14:18:40;;;;;;;543.07;367.93;;;;;;;;;;4973561;28;20189;-71
2023/10/11 14:21:12;;;;;;;576.87;365.53;;;;;;;;;;4972596;28;20259;-71
2023/10/11 14:23:44;;;;;;;521.77;369.47;;;;;;;;;;4975041;28;20178;-71
2023/10/11 14:26:12;;;;;;;567.83;365.37;;;;;;;;;;4975774;28;20271;-71
2023/10/11 14:28:39;;;;;;;574.63;362.27;;;;;;;;;;4982452;28;20608;-70
2023/10/11 14:31:04;;;;;;;541.47;348.87;;;;;;;;;;4980960;28;20186;-71
2023/10/11 14:33:33;;;;;;;520.10;327.87;;;;;;;;;;4982298;28;20197;-71
2023/10/11 14:35:59;;;;;;;547.10;349.10;;;;;;;;;;4981242;28;20181;-68
2023/10/11 14:38:25;;;;;;;558.67;353.70;;;;;;;;;;4977378;28;20225;-71
2023/10/11 14:40:50;;;;;;;519.67;331.90;;;;;;;;;;4974094;28;20205;-71
2023/10/11 14:43:16;;;;;;;529.50;350.70;;;;;;;;;;4983553;28;20698;-71
2023/10/11 14:45:46;;;;;;;527.50;344.13;;;;;;;;;;4978349;28;20296;-71